createdAt,value
2023-04-02T00:14:53.276Z,1.70
2023-04-02T00:22:28.987Z,1.88
2023-04-02T01:14:36.053Z,2.10
2023-04-02T01:17:15.517Z,2.65
2023-04-02T02:13:23.810Z,2.88
2023-04-02T03:52:48.620Z,2.45
2023-04-02T04:49:44.607Z,1.60
2023-04-02T05:48:00.149Z,1.60
2023-04-02T07:25:34.644Z,0.90
2023-04-02T10:16:14.797Z,1.10
2023-04-02T18:57:59.939Z,1.17
2023-04-02T19:00:29.801Z,0.68
2023-04-02T19:05:26.885Z,0.70
2023-04-02T19:07:56.282Z,0.90
2023-04-02T19:10:29.217Z,0.80
2023-04-02T19:12:58.005Z,0.85
2023-04-02T19:15:30.952Z,0.50
2023-04-02T19:18:05.225Z,1.00
2023-04-02T19:20:37.715Z,0.70
2023-04-02T19:23:15.316Z,0.73
2023-04-02T19:25:51.322Z,0.90
2023-04-02T19:28:23.125Z,1.08
2023-04-02T19:30:57.252Z,0.50
2023-04-02T19:33:34.563Z,0.85
2023-04-02T19:36:05.562Z,1.00
2023-04-02T19:38:45.443Z,0.90
2023-04-02T19:41:19.797Z,0.68
2023-04-02T19:43:48.687Z,0.65
2023-04-02T19:46:16.281Z,1.00
2023-04-02T19:48:46.913Z,0.98
2023-04-02T19:51:17.134Z,0.77
2023-04-02T19:53:44.727Z,0.63
2023-04-02T19:56:12.395Z,0.63
2023-04-02T19:58:39.776Z,0.40
2023-04-02T20:01:08.484Z,0.52
2023-04-02T20:03:36.245Z,0.45
2023-04-02T20:06:03.685Z,0.65
2023-04-02T20:08:31.449Z,0.52
2023-04-02T20:10:59.937Z,0.73
2023-04-02T20:13:27.336Z,0.63
2023-04-02T20:15:54.889Z,0.73
2023-04-02T20:18:23.619Z,0.28
2023-04-02T20:20:53.913Z,0.70
2023-04-02T20:23:21.351Z,0.40
2023-04-02T20:25:52.954Z,0.93
2023-04-02T20:28:20.384Z,0.63
2023-04-02T20:30:50.007Z,0.70
2023-04-02T20:33:17.923Z,0.77
2023-04-02T20:35:46.706Z,0.45
2023-04-02T20:38:14.085Z,0.68
2023-04-02T20:40:41.820Z,1.55
2023-04-02T20:43:09.267Z,0.75
2023-04-02T20:45:39.792Z,0.93
2023-04-02T20:48:07.443Z,0.90
2023-04-02T20:50:35.176Z,1.13
2023-04-02T20:53:04.061Z,0.77
2023-04-02T20:55:31.448Z,0.60
2023-04-02T20:58:02.583Z,0.82
2023-04-02T21:00:29.957Z,0.70
2023-04-02T21:02:57.767Z,1.13
2023-04-02T21:05:25.292Z,0.98
2023-04-02T21:07:53.494Z,1.13
2023-04-02T21:10:22.297Z,0.95
2023-04-02T21:12:50.032Z,0.80
2023-04-02T21:15:17.487Z,0.93
2023-04-02T21:17:44.962Z,0.90
2023-04-02T21:20:12.822Z,0.82
2023-04-02T21:22:40.425Z,0.80
2023-04-02T21:25:08.136Z,0.73
2023-04-02T21:27:36.871Z,0.70
2023-04-02T21:30:04.757Z,0.95
2023-04-02T21:32:33.071Z,0.60
2023-04-02T21:35:00.567Z,0.82
2023-04-02T21:37:27.990Z,1.40
2023-04-02T21:39:55.314Z,0.70
2023-04-02T21:42:22.737Z,0.40
2023-04-02T21:44:53.350Z,0.60
2023-04-02T21:47:20.702Z,0.55
2023-04-02T21:49:48.022Z,0.95
2023-04-02T21:52:16.649Z,0.80
2023-04-02T21:54:47.132Z,0.70
2023-04-02T21:57:14.462Z,1.00
2023-04-02T21:59:41.828Z,1.02
2023-04-02T22:02:13.510Z,0.90
2023-04-02T22:04:41.835Z,0.80
2023-04-02T22:07:10.629Z,0.93
2023-04-02T22:09:41.139Z,0.68
2023-04-02T22:12:08.725Z,0.73
2023-04-02T22:14:36.131Z,0.32
2023-04-02T22:17:03.706Z,0.60
2023-04-02T22:19:33.321Z,0.90
2023-04-02T22:22:00.658Z,0.70
2023-04-02T22:24:28.157Z,0.90
2023-04-02T22:26:55.565Z,1.00
2023-04-02T22:29:23.061Z,0.73
2023-04-02T22:31:50.416Z,0.82
2023-04-02T22:34:17.737Z,1.10
2023-04-02T22:36:46.578Z,0.80
2023-04-02T22:39:15.045Z,0.85
2023-04-02T22:41:42.486Z,0.85
2023-04-02T22:44:13.566Z,0.88
2023-04-02T22:46:41.476Z,0.50
2023-04-02T22:49:09.068Z,1.10
2023-04-02T22:51:36.380Z,1.13
2023-04-02T22:54:05.161Z,0.80
2023-04-02T22:56:33.087Z,1.13
2023-04-02T22:59:00.720Z,0.55
2023-04-02T23:01:29.260Z,0.88
2023-04-02T23:03:56.914Z,0.55
2023-04-02T23:06:24.741Z,0.60
2023-04-02T23:08:52.566Z,1.00
2023-04-02T23:11:22.880Z,0.80
2023-04-02T23:13:51.302Z,1.27
2023-04-02T23:16:19.360Z,0.40
2023-04-02T23:18:48.259Z,0.80
2023-04-02T23:21:16.235Z,0.55
2023-04-02T23:23:43.944Z,1.42
2023-04-02T23:26:12.218Z,0.90
2023-04-02T23:28:41.437Z,0.82
2023-04-02T23:31:09.739Z,0.73
2023-04-02T23:33:37.047Z,0.75
2023-04-02T23:36:07.784Z,0.88
2023-04-02T23:38:35.198Z,0.90
2023-04-02T23:41:02.697Z,1.00
2023-04-02T23:43:30.089Z,0.98
2023-04-02T23:46:18.264Z,0.50
2023-04-02T23:48:47.511Z,1.75
2023-04-02T23:51:15.082Z,0.82
2023-04-02T23:53:43.169Z,0.85
2023-04-02T23:56:10.953Z,0.52
2023-04-02T23:58:38.767Z,0.93
